sensor_id;sensor_type;location;lat;lon;timestamp;temperature;humidity
13686;DHT22;6915;48.296;8.874;2022-09-09T00:01:43;13.20;99.90
13686;DHT22;6915;48.296;8.874;2022-09-09T00:04:17;13.30;99.90
13686;DHT22;6915;48.296;8.874;2022-09-09T00:06:55;13.30;35.60
13686;DHT22;6915;48.296;8.874;2022-09-09T00:09:26;13.30;1.00
13686;DHT22;6915;48.296;8.874;2022-09-09T00:11:57;13.30;99.90
13686;DHT22;6915;48.296;8.874;2022-09-09T00:14:34;13.30;99.90
13686;DHT22;6915;48.296;8.874;2022-09-09T00:17:06;13.30;99.90
13686;DHT22;6915;48.296;8.874;2022-09-09T00:19:40;13.20;99.90
13686;DHT22;6915;48.296;8.874;2022-09-09T00:22:16;12.90;99.90
13686;DHT22;6915;48.296;8.874;2022-09-09T00:24:45;12.90;1.00
13686;DHT22;6915;48.296;8.874;2022-09-09T00:27:19;12.80;1.00
13686;DHT22;6915;48.296;8.874;2022-09-09T00:29:54;12.70;99.90
13686;DHT22;6915;48.296;8.874;2022-09-09T00:32:22;12.60;38.80
13686;DHT22;6915;48.296;8.874;2022-09-09T00:34:53;12.70;2.50
13686;DHT22;6915;48.296;8.874;2022-09-09T00:37:25;12.70;1.00
13686;DHT22;6915;48.296;8.874;2022-09-09T00:39:55;12.60;1.00
13686;DHT22;6915;48.296;8.874;2022-09-09T00:42:25;12.70;1.00
13686;DHT22;6915;48.296;8.874;2022-09-09T00:44:58;12.70;1.00
13686;DHT22;6915;48.296;8.874;2022-09-09T00:47:45;12.60;1.00
13686;DHT22;6915;48.296;8.874;2022-09-09T00:50:31;12.70;1.00
13686;DHT22;6915;48.296;8.874;2022-09-09T00:53:15;12.70;1.00
13686;DHT22;6915;48.296;8.874;2022-09-09T00:55:49;12.60;1.00
13686;DHT22;6915;48.296;8.874;2022-09-09T00:58:17;12.50;99.90
13686;DHT22;6915;48.296;8.874;2022-09-09T01:00:46;12.60;99.90
13686;DHT22;6915;48.296;8.874;2022-09-09T01:03:22;12.60;99.90
13686;DHT22;6915;48.296;8.874;2022-09-09T01:05:57;12.60;99.90
13686;DHT22;6915;48.296;8.874;2022-09-09T01:11:43;12.70;32.00
13686;DHT22;6915;48.296;8.874;2022-09-09T01:14:27;12.70;1.00
13686;DHT22;6915;48.296;8.874;2022-09-09T01:16:58;12.70;1.00
13686;DHT22;6915;48.296;8.874;2022-09-09T01:19:37;12.70;1.00
13686;DHT22;6915;48.296;8.874;2022-09-09T01:22:13;12.70;1.00
13686;DHT22;6915;48.296;8.874;2022-09-09T01:25:01;12.80;1.00
13686;DHT22;6915;48.296;8.874;2022-09-09T01:27:32;12.70;34.50
13686;DHT22;6915;48.296;8.874;2022-09-09T01:30:00;12.60;1.00
13686;DHT22;6915;48.296;8.874;2022-09-09T01:32:41;12.60;2.70
13686;DHT22;6915;48.296;8.874;2022-09-09T01:35:11;12.60;73.60
13686;DHT22;6915;48.296;8.874;2022-09-09T01:37:39;12.60;99.90
13686;DHT22;6915;48.296;8.874;2022-09-09T01:40:07;12.50;27.00
13686;DHT22;6915;48.296;8.874;2022-09-09T01:42:36;12.60;1.00
13686;DHT22;6915;48.296;8.874;2022-09-09T01:45:04;12.60;51.30
13686;DHT22;6915;48.296;8.874;2022-09-09T01:47:32;12.60;88.90
13686;DHT22;6915;48.296;8.874;2022-09-09T01:49:59;12.70;99.90
13686;DHT22;6915;48.296;8.874;2022-09-09T01:52:28;12.60;99.90
13686;DHT22;6915;48.296;8.874;2022-09-09T01:54:55;12.70;99.90
13686;DHT22;6915;48.296;8.874;2022-09-09T01:57:26;12.60;99.90
13686;DHT22;6915;48.296;8.874;2022-09-09T02:00:03;12.70;99.90
13686;DHT22;6915;48.296;8.874;2022-09-09T02:02:35;12.80;99.90
13686;DHT22;6915;48.296;8.874;2022-09-09T02:05:10;13.00;99.90
13686;DHT22;6915;48.296;8.874;2022-09-09T02:07:40;12.90;99.90
13686;DHT22;6915;48.296;8.874;2022-09-09T02:10:11;13.00;99.90
13686;DHT22;6915;48.296;8.874;2022-09-09T02:12:41;13.00;99.90
13686;DHT22;6915;48.296;8.874;2022-09-09T02:15:17;13.00;99.90
13686;DHT22;6915;48.296;8.874;2022-09-09T02:17:46;13.10;99.90
13686;DHT22;6915;48.296;8.874;2022-09-09T02:20:16;13.20;99.90
13686;DHT22;6915;48.296;8.874;2022-09-09T02:22:47;13.20;99.90
13686;DHT22;6915;48.296;8.874;2022-09-09T02:25:19;13.20;66.10
13686;DHT22;6915;48.296;8.874;2022-09-09T02:27:47;13.40;99.90
13686;DHT22;6915;48.296;8.874;2022-09-09T02:30:17;13.20;99.90
13686;DHT22;6915;48.296;8.874;2022-09-09T02:32:46;13.20;99.90
13686;DHT22;6915;48.296;8.874;2022-09-09T02:35:17;13.10;99.90
13686;DHT22;6915;48.296;8.874;2022-09-09T02:37:46;13.20;99.90
13686;DHT22;6915;48.296;8.874;2022-09-09T02:40:14;13.10;99.90
13686;DHT22;6915;48.296;8.874;2022-09-09T02:42:42;13.30;99.90
13686;DHT22;6915;48.296;8.874;2022-09-09T02:45:12;13.30;99.90
13686;DHT22;6915;48.296;8.874;2022-09-09T02:47:42;13.30;99.90
13686;DHT22;6915;48.296;8.874;2022-09-09T02:50:16;13.50;71.80
13686;DHT22;6915;48.296;8.874;2022-09-09T02:52:58;13.60;1.00
13686;DHT22;6915;48.296;8.874;2022-09-09T02:55:38;13.70;1.00
13686;DHT22;6915;48.296;8.874;2022-09-09T02:58:08;13.70;99.90
13686;DHT22;6915;48.296;8.874;2022-09-09T03:00:38;13.80;99.90
13686;DHT22;6915;48.296;8.874;2022-09-09T03:03:07;13.80;99.90
13686;DHT22;6915;48.296;8.874;2022-09-09T03:05:35;13.90;99.90
13686;DHT22;6915;48.296;8.874;2022-09-09T03:08:03;13.80;99.90
13686;DHT22;6915;48.296;8.874;2022-09-09T03:10:31;13.90;99.90
13686;DHT22;6915;48.296;8.874;2022-09-09T03:12:58;14.00;99.90
13686;DHT22;6915;48.296;8.874;2022-09-09T03:15:25;13.90;99.90
13686;DHT22;6915;48.296;8.874;2022-09-09T03:17:54;13.80;99.90
13686;DHT22;6915;48.296;8.874;2022-09-09T03:20:24;13.90;99.90
13686;DHT22;6915;48.296;8.874;2022-09-09T03:22:51;13.80;99.90
13686;DHT22;6915;48.296;8.874;2022-09-09T03:25:18;13.80;99.90
13686;DHT22;6915;48.296;8.874;2022-09-09T03:27:45;13.80;99.90
13686;DHT22;6915;48.296;8.874;2022-09-09T03:30:12;13.80;99.90
13686;DHT22;6915;48.296;8.874;2022-09-09T03:32:39;13.80;99.90
13686;DHT22;6915;48.296;8.874;2022-09-09T03:35:06;13.80;99.90
13686;DHT22;6915;48.296;8.874;2022-09-09T03:37:35;13.70;99.90
13686;DHT22;6915;48.296;8.874;2022-09-09T03:40:05;13.70;99.90
13686;DHT22;6915;48.296;8.874;2022-09-09T03:42:32;13.70;99.90
13686;DHT22;6915;48.296;8.874;2022-09-09T03:44:59;13.60;99.90
13686;DHT22;6915;48.296;8.874;2022-09-09T03:47:26;13.60;99.90
13686;DHT22;6915;48.296;8.874;2022-09-09T03:49:53;13.50;99.90
13686;DHT22;6915;48.296;8.874;2022-09-09T03:52:20;13.40;99.90
13686;DHT22;6915;48.296;8.874;2022-09-09T03:54:48;13.30;99.90
13686;DHT22;6915;48.296;8.874;2022-09-09T03:57:15;13.10;99.90
13686;DHT22;6915;48.296;8.874;2022-09-09T03:59:42;13.20;99.90
13686;DHT22;6915;48.296;8.874;2022-09-09T04:02:09;13.20;99.90
13686;DHT22;6915;48.296;8.874;2022-09-09T04:04:36;13.20;99.90
13686;DHT22;6915;48.296;8.874;2022-09-09T04:07:03;13.20;99.90
13686;DHT22;6915;48.296;8.874;2022-09-09T04:09:32;13.20;99.90
13686;DHT22;6915;48.296;8.874;2022-09-09T04:12:02;13.10;99.90
13686;DHT22;6915;48.296;8.874;2022-09-09T04:14:29;13.10;99.90
13686;DHT22;6915;48.296;8.874;2022-09-09T04:16:56;13.10;99.90
13686;DHT22;6915;48.296;8.874;2022-09-09T04:19:25;13.20;99.90
13686;DHT22;6915;48.296;8.874;2022-09-09T04:21:52;13.10;99.90
13686;DHT22;6915;48.296;8.874;2022-09-09T04:24:19;13.10;99.90
13686;DHT22;6915;48.296;8.874;2022-09-09T04:26:47;13.00;99.90
13686;DHT22;6915;48.296;8.874;2022-09-09T04:29:15;13.00;99.90
13686;DHT22;6915;48.296;8.874;2022-09-09T04:31:42;13.00;99.90
13686;DHT22;6915;48.296;8.874;2022-09-09T04:34:10;13.00;99.90
13686;DHT22;6915;48.296;8.874;2022-09-09T04:36:37;13.00;99.90
13686;DHT22;6915;48.296;8.874;2022-09-09T04:39:04;13.00;99.90
13686;DHT22;6915;48.296;8.874;2022-09-09T04:41:31;13.10;99.90
13686;DHT22;6915;48.296;8.874;2022-09-09T04:43:58;13.10;99.90
13686;DHT22;6915;48.296;8.874;2022-09-09T04:46:27;13.10;99.90
13686;DHT22;6915;48.296;8.874;2022-09-09T04:48:54;13.10;99.90
13686;DHT22;6915;48.296;8.874;2022-09-09T04:51:21;13.10;99.90
13686;DHT22;6915;48.296;8.874;2022-09-09T04:53:48;13.00;99.90
13686;DHT22;6915;48.296;8.874;2022-09-09T04:56:17;13.10;99.90
13686;DHT22;6915;48.296;8.874;2022-09-09T04:58:44;13.10;99.90
13686;DHT22;6915;48.296;8.874;2022-09-09T05:01:13;13.20;99.90
13686;DHT22;6915;48.296;8.874;2022-09-09T05:03:41;13.10;99.90
13686;DHT22;6915;48.296;8.874;2022-09-09T05:06:12;13.10;99.90
13686;DHT22;6915;48.296;8.874;2022-09-09T05:08:42;13.00;99.90
13686;DHT22;6915;48.296;8.874;2022-09-09T05:11:16;13.10;99.90
13686;DHT22;6915;48.296;8.874;2022-09-09T05:13:44;13.00;99.90
13686;DHT22;6915;48.296;8.874;2022-09-09T05:16:11;12.90;99.90
13686;DHT22;6915;48.296;8.874;2022-09-09T05:18:39;12.90;99.90
13686;DHT22;6915;48.296;8.874;2022-09-09T05:21:07;13.00;99.90
13686;DHT22;6915;48.296;8.874;2022-09-09T05:23:35;13.00;99.90
13686;DHT22;6915;48.296;8.874;2022-09-09T05:26:03;13.10;99.90
13686;DHT22;6915;48.296;8.874;2022-09-09T05:28:30;13.10;99.90
13686;DHT22;6915;48.296;8.874;2022-09-09T05:30:58;13.10;99.90
13686;DHT22;6915;48.296;8.874;2022-09-09T05:33:26;13.10;99.90
13686;DHT22;6915;48.296;8.874;2022-09-09T05:35:57;13.20;99.90
13686;DHT22;6915;48.296;8.874;2022-09-09T05:38:26;13.30;99.90
13686;DHT22;6915;48.296;8.874;2022-09-09T05:40:53;13.30;99.90
13686;DHT22;6915;48.296;8.874;2022-09-09T05:43:21;13.40;99.90
13686;DHT22;6915;48.296;8.874;2022-09-09T05:45:59;13.40;99.90
13686;DHT22;6915;48.296;8.874;2022-09-09T05:48:28;13.50;99.90
13686;DHT22;6915;48.296;8.874;2022-09-09T05:50:55;13.40;99.90
13686;DHT22;6915;48.296;8.874;2022-09-09T05:53:22;13.50;99.90
13686;DHT22;6915;48.296;8.874;2022-09-09T05:55:57;13.60;99.90
13686;DHT22;6915;48.296;8.874;2022-09-09T05:58:24;13.70;99.90
13686;DHT22;6915;48.296;8.874;2022-09-09T06:00:51;13.70;99.90
13686;DHT22;6915;48.296;8.874;2022-09-09T06:03:18;14.00;99.90
13686;DHT22;6915;48.296;8.874;2022-09-09T06:05:57;14.20;99.90
13686;DHT22;6915;48.296;8.874;2022-09-09T06:08:24;14.30;99.90
13686;DHT22;6915;48.296;8.874;2022-09-09T06:10:52;14.30;99.90
13686;DHT22;6915;48.296;8.874;2022-09-09T06:13:20;14.30;99.90
13686;DHT22;6915;48.296;8.874;2022-09-09T06:15:50;14.30;99.90
13686;DHT22;6915;48.296;8.874;2022-09-09T06:18:18;14.40;99.90
13686;DHT22;6915;48.296;8.874;2022-09-09T06:20:54;14.40;99.90
13686;DHT22;6915;48.296;8.874;2022-09-09T06:23:21;14.40;99.90
13686;DHT22;6915;48.296;8.874;2022-09-09T06:25:48;14.40;99.90
13686;DHT22;6915;48.296;8.874;2022-09-09T06:28:18;14.50;99.90
13686;DHT22;6915;48.296;8.874;2022-09-09T06:30:45;14.60;99.90
13686;DHT22;6915;48.296;8.874;2022-09-09T06:33:12;14.50;99.90
13686;DHT22;6915;48.296;8.874;2022-09-09T06:35:40;14.60;99.90
13686;DHT22;6915;48.296;8.874;2022-09-09T06:38:07;14.70;99.90
13686;DHT22;6915;48.296;8.874;2022-09-09T06:40:34;14.80;99.90
13686;DHT22;6915;48.296;8.874;2022-09-09T06:43:02;14.80;99.90
13686;DHT22;6915;48.296;8.874;2022-09-09T06:45:32;14.90;99.90
13686;DHT22;6915;48.296;8.874;2022-09-09T06:47:59;15.00;99.90
13686;DHT22;6915;48.296;8.874;2022-09-09T06:50:25;15.00;99.90
13686;DHT22;6915;48.296;8.874;2022-09-09T06:52:52;15.10;99.90
13686;DHT22;6915;48.296;8.874;2022-09-09T06:55:19;15.20;99.90
13686;DHT22;6915;48.296;8.874;2022-09-09T06:57:46;15.30;99.90
13686;DHT22;6915;48.296;8.874;2022-09-09T07:00:14;15.50;99.90
13686;DHT22;6915;48.296;8.874;2022-09-09T07:02:42;15.50;99.90
13686;DHT22;6915;48.296;8.874;2022-09-09T07:05:10;15.50;99.90
13686;DHT22;6915;48.296;8.874;2022-09-09T07:07:37;15.60;99.90
13686;DHT22;6915;48.296;8.874;2022-09-09T07:10:05;15.70;99.90
13686;DHT22;6915;48.296;8.874;2022-09-09T07:12:33;15.80;99.90
13686;DHT22;6915;48.296;8.874;2022-09-09T07:15:00;15.90;99.90
13686;DHT22;6915;48.296;8.874;2022-09-09T07:17:27;16.30;99.90
13686;DHT22;6915;48.296;8.874;2022-09-09T07:19:56;16.50;99.90
13686;DHT22;6915;48.296;8.874;2022-09-09T07:22:23;16.60;99.90
13686;DHT22;6915;48.296;8.874;2022-09-09T07:24:50;16.70;99.90
13686;DHT22;6915;48.296;8.874;2022-09-09T07:27:18;16.60;99.90
13686;DHT22;6915;48.296;8.874;2022-09-09T07:29:45;16.70;99.90
13686;DHT22;6915;48.296;8.874;2022-09-09T07:32:12;16.70;99.90
13686;DHT22;6915;48.296;8.874;2022-09-09T07:34:39;16.70;99.90
13686;DHT22;6915;48.296;8.874;2022-09-09T07:37:07;16.60;99.90
13686;DHT22;6915;48.296;8.874;2022-09-09T07:39:37;16.50;99.90
13686;DHT22;6915;48.296;8.874;2022-09-09T07:42:04;16.50;99.90
13686;DHT22;6915;48.296;8.874;2022-09-09T07:44:32;16.40;99.90
13686;DHT22;6915;48.296;8.874;2022-09-09T07:47:01;16.40;99.90
13686;DHT22;6915;48.296;8.874;2022-09-09T07:49:28;16.30;99.90
13686;DHT22;6915;48.296;8.874;2022-09-09T07:51:55;16.30;99.90
13686;DHT22;6915;48.296;8.874;2022-09-09T07:54:24;16.30;99.90
13686;DHT22;6915;48.296;8.874;2022-09-09T07:56:52;16.30;99.90
13686;DHT22;6915;48.296;8.874;2022-09-09T07:59:19;16.30;99.90
13686;DHT22;6915;48.296;8.874;2022-09-09T08:01:48;16.30;99.90
13686;DHT22;6915;48.296;8.874;2022-09-09T08:04:18;16.30;99.90
13686;DHT22;6915;48.296;8.874;2022-09-09T08:06:47;16.30;99.90
13686;DHT22;6915;48.296;8.874;2022-09-09T08:09:15;16.30;99.90
13686;DHT22;6915;48.296;8.874;2022-09-09T08:11:44;16.40;99.90
13686;DHT22;6915;48.296;8.874;2022-09-09T08:14:12;16.50;99.90
13686;DHT22;6915;48.296;8.874;2022-09-09T08:16:42;16.70;99.90
13686;DHT22;6915;48.296;8.874;2022-09-09T08:19:09;16.80;99.90
13686;DHT22;6915;48.296;8.874;2022-09-09T08:21:37;16.90;99.90
13686;DHT22;6915;48.296;8.874;2022-09-09T08:24:06;17.10;99.90
13686;DHT22;6915;48.296;8.874;2022-09-09T08:26:35;17.20;99.90
13686;DHT22;6915;48.296;8.874;2022-09-09T08:29:05;17.30;99.90
13686;DHT22;6915;48.296;8.874;2022-09-09T08:31:34;17.40;1.00
13686;DHT22;6915;48.296;8.874;2022-09-09T08:34:04;17.40;1.00
13686;DHT22;6915;48.296;8.874;2022-09-09T08:36:33;17.50;97.70
13686;DHT22;6915;48.296;8.874;2022-09-09T08:39:00;17.60;99.90
13686;DHT22;6915;48.296;8.874;2022-09-09T08:41:43;17.60;99.90
13686;DHT22;6915;48.296;8.874;2022-09-09T08:44:20;17.90;99.90
13686;DHT22;6915;48.296;8.874;2022-09-09T08:46:56;17.90;99.90
13686;DHT22;6915;48.296;8.874;2022-09-09T08:49:41;17.90;99.90
13686;DHT22;6915;48.296;8.874;2022-09-09T08:52:16;17.90;99.90
13686;DHT22;6915;48.296;8.874;2022-09-09T08:54:44;18.00;99.90
13686;DHT22;6915;48.296;8.874;2022-09-09T08:57:16;18.00;1.00
13686;DHT22;6915;48.296;8.874;2022-09-09T08:59:46;18.00;89.50
13686;DHT22;6915;48.296;8.874;2022-09-09T09:02:17;18.00;1.00
13686;DHT22;6915;48.296;8.874;2022-09-09T09:04:56;18.00;1.00
13686;DHT22;6915;48.296;8.874;2022-09-09T09:07:36;17.90;56.00
13686;DHT22;6915;48.296;8.874;2022-09-09T09:10:14;17.80;93.40
13686;DHT22;6915;48.296;8.874;2022-09-09T09:12:44;17.80;1.00
13686;DHT22;6915;48.296;8.874;2022-09-09T09:15:19;18.00;1.00
13686;DHT22;6915;48.296;8.874;2022-09-09T09:17:48;18.40;1.00
13686;DHT22;6915;48.296;8.874;2022-09-09T09:20:16;18.70;1.00
13686;DHT22;6915;48.296;8.874;2022-09-09T09:22:48;18.80;1.00
13686;DHT22;6915;48.296;8.874;2022-09-09T09:25:18;19.00;24.80
13686;DHT22;6915;48.296;8.874;2022-09-09T09:27:52;19.20;97.60
13686;DHT22;6915;48.296;8.874;2022-09-09T09:30:26;19.40;99.90
13686;DHT22;6915;48.296;8.874;2022-09-09T09:32:58;19.50;99.90
13686;DHT22;6915;48.296;8.874;2022-09-09T09:35:27;19.60;1.00
13686;DHT22;6915;48.296;8.874;2022-09-09T09:37:55;19.60;1.00
13686;DHT22;6915;48.296;8.874;2022-09-09T09:40:23;19.70;1.00
13686;DHT22;6915;48.296;8.874;2022-09-09T09:42:57;19.70;1.00
13686;DHT22;6915;48.296;8.874;2022-09-09T09:45:31;19.60;24.70
13686;DHT22;6915;48.296;8.874;2022-09-09T09:48:02;19.50;99.90
13686;DHT22;6915;48.296;8.874;2022-09-09T09:50:30;19.50;1.00
13686;DHT22;6915;48.296;8.874;2022-09-09T09:53:00;19.40;1.00
13686;DHT22;6915;48.296;8.874;2022-09-09T09:55:29;19.60;1.00
13686;DHT22;6915;48.296;8.874;2022-09-09T09:58:14;19.90;1.00
13686;DHT22;6915;48.296;8.874;2022-09-09T10:00:49;19.90;99.90
13686;DHT22;6915;48.296;8.874;2022-09-09T10:03:25;19.60;1.00
13686;DHT22;6915;48.296;8.874;2022-09-09T10:05:53;19.40;1.00
13686;DHT22;6915;48.296;8.874;2022-09-09T10:08:22;19.40;99.90
13686;DHT22;6915;48.296;8.874;2022-09-09T10:10:57;19.50;1.00
13686;DHT22;6915;48.296;8.874;2022-09-09T10:13:31;19.60;99.90
13686;DHT22;6915;48.296;8.874;2022-09-09T10:16:18;20.00;99.90
13686;DHT22;6915;48.296;8.874;2022-09-09T10:18:58;20.30;99.90
13686;DHT22;6915;48.296;8.874;2022-09-09T10:21:43;20.70;1.00
13686;DHT22;6915;48.296;8.874;2022-09-09T10:27:34;20.60;99.90
13686;DHT22;6915;48.296;8.874;2022-09-09T10:30:16;20.80;72.30
13686;DHT22;6915;48.296;8.874;2022-09-09T10:32:49;21.00;1.00
13686;DHT22;6915;48.296;8.874;2022-09-09T10:35:25;21.10;99.90
13686;DHT22;6915;48.296;8.874;2022-09-09T10:38:11;21.10;47.70
13686;DHT22;6915;48.296;8.874;2022-09-09T10:40:44;21.20;99.90
13686;DHT22;6915;48.296;8.874;2022-09-09T10:43:25;21.10;99.90
13686;DHT22;6915;48.296;8.874;2022-09-09T10:46:04;21.10;99.90
13686;DHT22;6915;48.296;8.874;2022-09-09T10:48:46;21.30;99.90
13686;DHT22;6915;48.296;8.874;2022-09-09T10:51:24;21.50;1.00
13686;DHT22;6915;48.296;8.874;2022-09-09T10:54:03;21.60;1.00
13686;DHT22;6915;48.296;8.874;2022-09-09T10:56:32;21.50;1.00
13686;DHT22;6915;48.296;8.874;2022-09-09T10:59:04;21.60;1.00
13686;DHT22;6915;48.296;8.874;2022-09-09T11:01:37;21.90;1.00
13686;DHT22;6915;48.296;8.874;2022-09-09T11:04:12;22.10;1.00
13686;DHT22;6915;48.296;8.874;2022-09-09T11:06:48;22.40;1.00
13686;DHT22;6915;48.296;8.874;2022-09-09T11:09:21;22.50;1.00
13686;DHT22;6915;48.296;8.874;2022-09-09T11:11:52;22.60;99.90
13686;DHT22;6915;48.296;8.874;2022-09-09T11:14:26;22.80;1.00
13686;DHT22;6915;48.296;8.874;2022-09-09T11:16:58;22.90;99.90
13686;DHT22;6915;48.296;8.874;2022-09-09T11:19:33;22.80;99.90
13686;DHT22;6915;48.296;8.874;2022-09-09T11:22:03;22.80;46.00
13686;DHT22;6915;48.296;8.874;2022-09-09T11:24:35;22.80;1.00
13686;DHT22;6915;48.296;8.874;2022-09-09T11:27:08;23.00;1.00
13686;DHT22;6915;48.296;8.874;2022-09-09T11:30:13;23.20;1.00
13686;DHT22;6915;48.296;8.874;2022-09-09T11:33:02;23.50;1.00
13686;DHT22;6915;48.296;8.874;2022-09-09T11:35:38;23.50;99.90
13686;DHT22;6915;48.296;8.874;2022-09-09T11:38:21;23.20;1.00
13686;DHT22;6915;48.296;8.874;2022-09-09T11:40:56;23.40;1.00
13686;DHT22;6915;48.296;8.874;2022-09-09T11:43:28;23.60;99.90
13686;DHT22;6915;48.296;8.874;2022-09-09T11:45:59;23.90;99.90
13686;DHT22;6915;48.296;8.874;2022-09-09T11:48:33;24.00;99.90
13686;DHT22;6915;48.296;8.874;2022-09-09T11:51:05;23.50;99.90
13686;DHT22;6915;48.296;8.874;2022-09-09T11:53:34;22.90;99.90
13686;DHT22;6915;48.296;8.874;2022-09-09T11:56:04;22.40;1.00
13686;DHT22;6915;48.296;8.874;2022-09-09T11:58:37;22.10;99.90
13686;DHT22;6915;48.296;8.874;2022-09-09T12:01:36;22.10;99.90
13686;DHT22;6915;48.296;8.874;2022-09-09T12:04:32;22.00;99.90
13686;DHT22;6915;48.296;8.874;2022-09-09T12:07:03;21.70;99.90
13686;DHT22;6915;48.296;8.874;2022-09-09T12:09:45;21.70;99.90
13686;DHT22;6915;48.296;8.874;2022-09-09T12:12:23;21.70;1.00
13686;DHT22;6915;48.296;8.874;2022-09-09T12:15:27;21.30;99.90
13686;DHT22;6915;48.296;8.874;2022-09-09T12:17:56;20.90;1.00
13686;DHT22;6915;48.296;8.874;2022-09-09T12:20:31;20.30;1.00
13686;DHT22;6915;48.296;8.874;2022-09-09T12:23:32;19.90;99.90
13686;DHT22;6915;48.296;8.874;2022-09-09T12:26:12;19.80;99.90
13686;DHT22;6915;48.296;8.874;2022-09-09T12:28:52;19.70;99.90
13686;DHT22;6915;48.296;8.874;2022-09-09T12:31:25;19.70;1.00
13686;DHT22;6915;48.296;8.874;2022-09-09T12:33:54;19.80;99.90
13686;DHT22;6915;48.296;8.874;2022-09-09T12:36:24;19.90;1.00
13686;DHT22;6915;48.296;8.874;2022-09-09T12:38:56;20.00;1.00
13686;DHT22;6915;48.296;8.874;2022-09-09T12:41:27;20.10;1.00
13686;DHT22;6915;48.296;8.874;2022-09-09T12:44:04;20.40;24.40
13686;DHT22;6915;48.296;8.874;2022-09-09T12:46:35;21.00;1.00
13686;DHT22;6915;48.296;8.874;2022-09-09T12:49:03;21.50;99.90
13686;DHT22;6915;48.296;8.874;2022-09-09T12:51:32;21.90;99.90
13686;DHT22;6915;48.296;8.874;2022-09-09T12:54:01;22.20;1.00
13686;DHT22;6915;48.296;8.874;2022-09-09T12:56:31;22.30;1.00
13686;DHT22;6915;48.296;8.874;2022-09-09T12:58:59;22.60;1.00
13686;DHT22;6915;48.296;8.874;2022-09-09T13:01:28;22.50;1.00
13686;DHT22;6915;48.296;8.874;2022-09-09T13:03:55;22.20;1.00
13686;DHT22;6915;48.296;8.874;2022-09-09T13:06:24;21.80;1.00
13686;DHT22;6915;48.296;8.874;2022-09-09T13:08:53;21.10;1.00
13686;DHT22;6915;48.296;8.874;2022-09-09T13:11:24;20.80;1.00
13686;DHT22;6915;48.296;8.874;2022-09-09T13:13:55;20.60;1.00
13686;DHT22;6915;48.296;8.874;2022-09-09T13:16:26;20.50;1.00
13686;DHT22;6915;48.296;8.874;2022-09-09T13:18:57;20.60;8.00
13686;DHT22;6915;48.296;8.874;2022-09-09T13:21:32;20.70;1.00
13686;DHT22;6915;48.296;8.874;2022-09-09T13:24:00;21.10;1.00
13686;DHT22;6915;48.296;8.874;2022-09-09T13:26:30;21.50;1.00
13686;DHT22;6915;48.296;8.874;2022-09-09T13:29:15;21.80;1.00
13686;DHT22;6915;48.296;8.874;2022-09-09T13:31:45;22.10;99.90
13686;DHT22;6915;48.296;8.874;2022-09-09T13:34:13;22.20;99.90
13686;DHT22;6915;48.296;8.874;2022-09-09T13:36:41;22.40;99.90
13686;DHT22;6915;48.296;8.874;2022-09-09T13:39:15;22.20;1.00
13686;DHT22;6915;48.296;8.874;2022-09-09T13:41:45;22.20;1.00
13686;DHT22;6915;48.296;8.874;2022-09-09T13:44:20;22.10;1.00
13686;DHT22;6915;48.296;8.874;2022-09-09T13:47:00;21.50;1.00
13686;DHT22;6915;48.296;8.874;2022-09-09T13:49:31;21.50;1.00
13686;DHT22;6915;48.296;8.874;2022-09-09T13:52:09;22.00;1.00
13686;DHT22;6915;48.296;8.874;2022-09-09T13:54:37;22.30;99.90
13686;DHT22;6915;48.296;8.874;2022-09-09T13:57:13;22.40;99.90
13686;DHT22;6915;48.296;8.874;2022-09-09T13:59:41;22.60;1.00
13686;DHT22;6915;48.296;8.874;2022-09-09T14:02:08;22.70;1.00
13686;DHT22;6915;48.296;8.874;2022-09-09T14:04:35;22.80;99.90
13686;DHT22;6915;48.296;8.874;2022-09-09T14:07:03;22.50;99.90
13686;DHT22;6915;48.296;8.874;2022-09-09T14:09:30;22.40;1.00
13686;DHT22;6915;48.296;8.874;2022-09-09T14:11:57;22.40;1.00
13686;DHT22;6915;48.296;8.874;2022-09-09T14:14:27;22.10;1.00
13686;DHT22;6915;48.296;8.874;2022-09-09T14:16:54;21.60;99.90
13686;DHT22;6915;48.296;8.874;2022-09-09T14:19:21;21.10;1.00
13686;DHT22;6915;48.296;8.874;2022-09-09T14:21:48;20.90;1.00
13686;DHT22;6915;48.296;8.874;2022-09-09T14:24:16;20.60;1.00
13686;DHT22;6915;48.296;8.874;2022-09-09T14:26:43;20.50;1.00
13686;DHT22;6915;48.296;8.874;2022-09-09T14:29:10;20.40;1.00
13686;DHT22;6915;48.296;8.874;2022-09-09T14:31:38;20.40;1.00
13686;DHT22;6915;48.296;8.874;2022-09-09T14:34:05;20.30;99.90
13686;DHT22;6915;48.296;8.874;2022-09-09T14:36:32;20.40;12.10
13686;DHT22;6915;48.296;8.874;2022-09-09T14:38:59;20.40;1.00
13686;DHT22;6915;48.296;8.874;2022-09-09T14:41:27;20.70;99.90
13686;DHT22;6915;48.296;8.874;2022-09-09T14:43:55;21.20;1.00
13686;DHT22;6915;48.296;8.874;2022-09-09T14:46:22;21.70;1.00
13686;DHT22;6915;48.296;8.874;2022-09-09T14:48:51;22.20;1.00
13686;DHT22;6915;48.296;8.874;2022-09-09T14:51:20;22.20;1.00
13686;DHT22;6915;48.296;8.874;2022-09-09T14:53:51;22.00;1.00
13686;DHT22;6915;48.296;8.874;2022-09-09T14:56:19;21.60;1.00
13686;DHT22;6915;48.296;8.874;2022-09-09T14:58:47;21.60;1.00
13686;DHT22;6915;48.296;8.874;2022-09-09T15:01:16;21.30;1.00
13686;DHT22;6915;48.296;8.874;2022-09-09T15:03:49;20.90;1.00
13686;DHT22;6915;48.296;8.874;2022-09-09T15:06:18;20.50;1.00
13686;DHT22;6915;48.296;8.874;2022-09-09T15:08:46;20.00;1.00
13686;DHT22;6915;48.296;8.874;2022-09-09T15:11:14;19.90;1.00
13686;DHT22;6915;48.296;8.874;2022-09-09T15:13:42;19.80;1.00
13686;DHT22;6915;48.296;8.874;2022-09-09T15:16:12;19.60;1.00
13686;DHT22;6915;48.296;8.874;2022-09-09T15:18:39;19.40;97.80
13686;DHT22;6915;48.296;8.874;2022-09-09T15:21:09;19.30;99.90
13686;DHT22;6915;48.296;8.874;2022-09-09T15:23:37;19.30;1.00
13686;DHT22;6915;48.296;8.874;2022-09-09T15:26:05;19.30;1.00
13686;DHT22;6915;48.296;8.874;2022-09-09T15:28:33;19.30;1.00
13686;DHT22;6915;48.296;8.874;2022-09-09T15:31:05;19.20;1.00
13686;DHT22;6915;48.296;8.874;2022-09-09T15:33:33;19.20;1.00
13686;DHT22;6915;48.296;8.874;2022-09-09T15:36:12;19.40;1.00
13686;DHT22;6915;48.296;8.874;2022-09-09T15:38:41;19.40;99.90
13686;DHT22;6915;48.296;8.874;2022-09-09T15:41:09;19.60;99.90
13686;DHT22;6915;48.296;8.874;2022-09-09T15:43:37;19.90;99.90
13686;DHT22;6915;48.296;8.874;2022-09-09T15:46:22;20.10;99.90
13686;DHT22;6915;48.296;8.874;2022-09-09T15:48:51;20.10;99.90
13686;DHT22;6915;48.296;8.874;2022-09-09T15:51:18;20.30;99.90
13686;DHT22;6915;48.296;8.874;2022-09-09T15:53:47;20.50;76.70
13686;DHT22;6915;48.296;8.874;2022-09-09T15:56:14;20.60;99.90
13686;DHT22;6915;48.296;8.874;2022-09-09T15:58:41;20.70;1.00
13686;DHT22;6915;48.296;8.874;2022-09-09T16:01:10;20.60;99.90
13686;DHT22;6915;48.296;8.874;2022-09-09T16:03:40;20.20;99.90
13686;DHT22;6915;48.296;8.874;2022-09-09T16:06:08;20.20;1.00
13686;DHT22;6915;48.296;8.874;2022-09-09T16:08:36;20.30;99.90
13686;DHT22;6915;48.296;8.874;2022-09-09T16:11:06;20.50;1.00
13686;DHT22;6915;48.296;8.874;2022-09-09T16:13:35;20.60;99.90
13686;DHT22;6915;48.296;8.874;2022-09-09T16:16:03;20.30;99.90
13686;DHT22;6915;48.296;8.874;2022-09-09T16:18:35;20.00;99.90
13686;DHT22;6915;48.296;8.874;2022-09-09T16:21:02;19.80;99.90